Weather at San Francisco Bay Airdrome [CLOSED]

Public forecast

Using degrees Fahrenheit for public forecast. Weather courtesy of forecast.io.

Closest aviation weather report (METAR) to San Francisco Bay Airdrome

Closest report is Metropolitan Oakland International Airport, 4.8 nm (8.9 km) SE.

2024/05/27 23:53 (retrieved 45 minutes ago)

KOAK 272353Z 28015KT 10SM FEW010 16/10 A3004 RMK AO2 SLP173 T01610100 10172 20139 56010

Closest aviation forecast (TAF) to San Francisco Bay Airdrome

Closest forecast is Travis Air Force Base, 33.2 nm (61.6 km) NNE.

2024/05/27 19:38 (retrieved 5 hours ago)

TAF KSUU 271900Z 2719/2901 23012G18KT 9999 SKC QNH2991INS BECMG 2719/2720 23015G25KT 9999 SKC QNH2990INS BECMG 2814/2815 23010G15KT 9999 SKC QNH3000INS TX27/2723Z TN10/2813Z